createdAt,value
2022-09-30T00:00:39.296Z,0.00
2022-09-30T00:01:39.381Z,0.00
2022-09-30T00:02:39.265Z,0.00
2022-09-30T00:03:39.248Z,0.00
2022-09-30T00:04:39.206Z,0.00
2022-09-30T00:05:39.242Z,0.00
2022-09-30T00:06:39.203Z,0.00
2022-09-30T00:07:39.183Z,0.00
2022-09-30T00:08:39.158Z,0.00
2022-09-30T00:09:39.214Z,0.00
2022-09-30T00:10:39.193Z,0.00
2022-09-30T00:11:39.141Z,0.00
2022-09-30T00:12:39.112Z,0.00
2022-09-30T00:13:39.114Z,0.00
2022-09-30T00:14:39.102Z,0.00
2022-09-30T00:15:39.114Z,0.00
2022-09-30T00:16:39.115Z,0.00
2022-09-30T00:17:39.072Z,0.00
2022-09-30T00:18:39.095Z,0.00
2022-09-30T00:19:39.043Z,0.00
2022-09-30T00:20:39.038Z,0.00
2022-09-30T00:21:39.078Z,0.00
2022-09-30T00:22:39.020Z,0.00
2022-09-30T00:23:39.045Z,0.00
2022-09-30T00:24:38.999Z,0.00
2022-09-30T00:25:38.985Z,0.00
2022-09-30T00:26:39.028Z,0.00
2022-09-30T00:27:38.955Z,0.00
2022-09-30T00:28:38.969Z,0.00
2022-09-30T00:29:38.950Z,0.00
2022-09-30T00:30:38.927Z,0.00
2022-09-30T00:31:39.011Z,0.00
2022-09-30T00:32:38.947Z,0.00
2022-09-30T00:33:38.892Z,0.00
2022-09-30T00:34:38.897Z,0.00
2022-09-30T00:35:38.871Z,0.00
2022-09-30T00:36:38.889Z,0.00
2022-09-30T00:37:38.868Z,0.00
2022-09-30T00:38:38.844Z,0.00
2022-09-30T00:39:38.821Z,0.00
2022-09-30T00:40:38.822Z,0.00
2022-09-30T00:41:38.817Z,0.00
2022-09-30T00:42:38.820Z,0.00
2022-09-30T00:43:38.787Z,0.00
2022-09-30T00:44:38.772Z,0.00
2022-09-30T00:45:38.779Z,0.00
2022-09-30T00:46:43.666Z,0.00
2022-09-30T00:47:39.392Z,0.00
2022-09-30T00:48:38.733Z,0.00
2022-09-30T00:49:38.712Z,0.00
2022-09-30T00:50:38.710Z,0.00
2022-09-30T00:51:38.725Z,0.00
2022-09-30T00:52:38.690Z,0.00
2022-09-30T00:53:38.682Z,0.00
2022-09-30T00:54:38.673Z,0.00
2022-09-30T00:55:38.704Z,0.00
2022-09-30T00:56:38.666Z,0.00
2022-09-30T00:57:38.694Z,0.00
2022-09-30T00:58:38.619Z,0.00
2022-09-30T00:59:38.601Z,0.00
2022-09-30T01:00:38.678Z,0.00
2022-09-30T01:01:38.694Z,0.00
2022-09-30T01:02:38.574Z,0.00
2022-09-30T01:03:38.590Z,0.00
2022-09-30T01:04:38.546Z,0.00
2022-09-30T01:05:39.531Z,0.00
2022-09-30T01:06:38.543Z,0.00
2022-09-30T01:07:38.521Z,0.00
2022-09-30T01:08:38.530Z,0.00
2022-09-30T01:09:38.564Z,0.00
2022-09-30T01:10:38.494Z,0.00
2022-09-30T01:11:38.494Z,0.00
2022-09-30T01:12:38.501Z,0.00
2022-09-30T01:13:38.474Z,0.00
2022-09-30T01:14:38.438Z,0.00
2022-09-30T01:15:38.433Z,0.00
2022-09-30T01:16:38.594Z,0.00
2022-09-30T01:17:38.409Z,0.00
2022-09-30T01:18:38.414Z,0.00
2022-09-30T01:19:38.403Z,0.00
2022-09-30T01:20:38.386Z,0.00
2022-09-30T01:21:38.387Z,0.00
2022-09-30T01:22:42.026Z,0.00
2022-09-30T01:23:38.377Z,0.00
2022-09-30T01:24:38.340Z,0.00
2022-09-30T01:25:38.315Z,0.00
2022-09-30T01:26:38.398Z,0.00
2022-09-30T01:27:38.303Z,0.00
2022-09-30T01:28:38.319Z,0.00
2022-09-30T01:29:38.279Z,0.00
2022-09-30T01:30:38.272Z,0.00
2022-09-30T01:31:38.351Z,0.00
2022-09-30T01:32:38.258Z,0.00
2022-09-30T01:33:38.271Z,0.00
2022-09-30T01:34:38.227Z,0.00
2022-09-30T01:35:38.210Z,0.00
2022-09-30T01:36:38.219Z,0.00
2022-09-30T01:37:38.230Z,0.00
2022-09-30T01:38:38.184Z,0.00
2022-09-30T01:39:38.171Z,0.00
2022-09-30T01:40:38.163Z,0.00
2022-09-30T01:41:38.166Z,0.00
2022-09-30T01:42:38.147Z,0.00
2022-09-30T01:43:38.125Z,0.00
2022-09-30T01:44:38.124Z,0.00
2022-09-30T01:45:38.104Z,0.00
2022-09-30T01:46:38.168Z,0.00
2022-09-30T01:47:38.130Z,0.00
2022-09-30T01:48:38.070Z,0.00
2022-09-30T01:49:38.074Z,0.00
2022-09-30T01:50:38.049Z,0.00
2022-09-30T01:51:38.050Z,0.00
2022-09-30T01:52:38.037Z,0.00
2022-09-30T01:53:38.020Z,0.00
2022-09-30T01:54:38.009Z,0.00
2022-09-30T01:55:37.995Z,0.00
2022-09-30T01:56:38.041Z,0.00
2022-09-30T01:57:37.968Z,0.00
2022-09-30T01:58:37.978Z,0.00
2022-09-30T01:59:37.943Z,0.00
2022-09-30T02:00:38.036Z,0.00
2022-09-30T02:01:37.983Z,0.00
2022-09-30T02:02:37.918Z,0.00
2022-09-30T02:03:37.959Z,0.00
2022-09-30T02:04:37.891Z,0.00
2022-09-30T02:05:37.933Z,0.00
2022-09-30T02:06:36.899Z,0.00
2022-09-30T02:07:40.801Z,0.00
2022-09-30T02:08:37.853Z,0.00
2022-09-30T02:09:37.895Z,0.00
2022-09-30T02:10:37.850Z,0.00
2022-09-30T02:11:37.871Z,0.00
2022-09-30T02:12:37.821Z,0.00
2022-09-30T02:13:37.791Z,0.00
2022-09-30T02:14:37.793Z,0.00
2022-09-30T02:15:40.576Z,0.00
2022-09-30T02:16:37.844Z,0.00
2022-09-30T02:17:38.315Z,0.00
2022-09-30T02:18:37.766Z,0.00
2022-09-30T02:19:37.750Z,0.00
2022-09-30T02:20:37.767Z,0.00
2022-09-30T02:21:37.734Z,0.00
2022-09-30T02:22:37.708Z,0.00
2022-09-30T02:23:37.678Z,0.00
2022-09-30T02:24:37.690Z,0.00
2022-09-30T02:25:37.662Z,0.00
2022-09-30T02:26:37.706Z,0.00
2022-09-30T02:27:38.199Z,0.00
2022-09-30T02:28:37.627Z,0.00
2022-09-30T02:29:37.640Z,0.00
2022-09-30T02:30:37.619Z,0.00
2022-09-30T02:31:37.653Z,0.00
2022-09-30T02:32:37.644Z,0.00
2022-09-30T02:33:37.580Z,0.00
2022-09-30T02:34:37.574Z,0.00
2022-09-30T02:35:37.554Z,0.00
2022-09-30T02:36:37.568Z,0.00
2022-09-30T02:37:37.550Z,0.00
2022-09-30T02:38:37.539Z,0.00
2022-09-30T02:39:37.515Z,0.00
2022-09-30T02:40:37.542Z,0.00
2022-09-30T02:41:37.493Z,0.00
2022-09-30T02:42:37.560Z,0.00
2022-09-30T02:43:37.468Z,0.00
2022-09-30T02:44:37.462Z,0.00
2022-09-30T02:45:37.510Z,0.00
2022-09-30T02:46:37.475Z,0.00
2022-09-30T02:47:37.466Z,0.00
2022-09-30T02:48:37.410Z,0.00
2022-09-30T02:49:37.410Z,0.00
2022-09-30T02:50:37.414Z,0.00
2022-09-30T02:51:37.393Z,0.00
2022-09-30T02:52:37.388Z,0.00
2022-09-30T02:53:37.356Z,0.00
2022-09-30T02:54:37.351Z,0.00
2022-09-30T02:55:37.343Z,0.00
2022-09-30T02:56:37.328Z,0.00
2022-09-30T02:57:37.331Z,0.00
2022-09-30T02:58:37.299Z,0.00
2022-09-30T02:59:37.301Z,0.00
2022-09-30T03:00:37.356Z,0.00
2022-09-30T03:01:37.298Z,0.00
2022-09-30T03:02:37.287Z,0.00
2022-09-30T03:03:37.268Z,0.00
2022-09-30T03:04:37.266Z,0.00
2022-09-30T03:05:37.231Z,0.00
2022-09-30T03:06:37.261Z,0.00
2022-09-30T03:07:37.241Z,0.00
2022-09-30T03:08:37.203Z,0.00
2022-09-30T03:09:37.251Z,0.00
2022-09-30T03:10:37.175Z,0.00
2022-09-30T03:11:37.169Z,0.00
2022-09-30T03:12:37.179Z,0.00
2022-09-30T03:13:37.137Z,0.00
2022-09-30T03:14:37.151Z,0.00
2022-09-30T03:15:37.116Z,0.00
2022-09-30T03:16:37.238Z,0.00
2022-09-30T03:17:37.125Z,0.00
2022-09-30T03:18:37.094Z,0.00
2022-09-30T03:19:37.090Z,0.00
2022-09-30T03:20:37.064Z,0.00
2022-09-30T03:21:37.060Z,0.00
2022-09-30T03:22:37.055Z,0.00
2022-09-30T03:23:37.043Z,0.00
2022-09-30T03:24:37.032Z,0.00
2022-09-30T03:25:37.004Z,0.00
2022-09-30T03:26:37.063Z,0.00
2022-09-30T03:27:37.006Z,0.00
2022-09-30T03:28:37.003Z,0.00
2022-09-30T03:29:36.967Z,0.00
2022-09-30T03:30:36.956Z,0.00
2022-09-30T03:31:37.023Z,0.00
2022-09-30T03:32:36.952Z,0.00
2022-09-30T03:33:36.932Z,0.00
2022-09-30T03:34:36.914Z,0.00
2022-09-30T03:35:36.915Z,0.00
2022-09-30T03:36:36.936Z,0.00
2022-09-30T03:37:36.898Z,0.00
2022-09-30T03:38:36.877Z,0.00
2022-09-30T03:39:36.861Z,0.00
2022-09-30T03:40:36.851Z,0.00
2022-09-30T03:41:36.853Z,0.00
2022-09-30T03:42:36.867Z,0.00
2022-09-30T03:43:36.817Z,0.00
2022-09-30T03:44:36.824Z,0.00
2022-09-30T03:45:36.797Z,0.00
2022-09-30T03:46:36.810Z,0.00
2022-09-30T03:47:36.783Z,0.00
2022-09-30T03:48:36.782Z,0.00
2022-09-30T03:49:36.755Z,0.00
2022-09-30T03:50:36.743Z,0.00
2022-09-30T03:51:36.718Z,0.00
2022-09-30T03:52:36.738Z,0.00
2022-09-30T03:53:36.713Z,0.00
2022-09-30T03:54:36.699Z,0.00
2022-09-30T03:55:36.673Z,0.00
2022-09-30T03:56:36.669Z,0.00
2022-09-30T03:57:36.676Z,0.00
2022-09-30T03:58:36.689Z,0.00
2022-09-30T03:59:36.633Z,0.00
2022-09-30T04:00:36.666Z,0.00
2022-09-30T04:01:36.662Z,0.00
2022-09-30T04:02:36.621Z,0.00
2022-09-30T04:03:36.586Z,0.00
2022-09-30T04:04:36.584Z,0.00
2022-09-30T04:05:36.577Z,0.00
2022-09-30T04:06:36.557Z,0.00
2022-09-30T04:07:36.610Z,0.00
2022-09-30T04:08:36.541Z,0.00
2022-09-30T04:09:36.557Z,0.00
2022-09-30T04:10:36.553Z,0.00
2022-09-30T04:11:36.508Z,0.00
2022-09-30T04:12:36.510Z,0.00
2022-09-30T04:13:36.500Z,0.00
2022-09-30T04:14:36.471Z,0.00
2022-09-30T04:15:36.459Z,0.00
2022-09-30T04:16:36.525Z,0.00
2022-09-30T04:17:36.450Z,0.00
2022-09-30T04:18:36.474Z,0.00
2022-09-30T04:19:36.440Z,0.00
2022-09-30T04:20:36.400Z,0.00
2022-09-30T04:21:36.425Z,0.00
2022-09-30T04:22:36.403Z,0.00
2022-09-30T04:23:36.369Z,0.00
2022-09-30T04:24:36.358Z,0.00
2022-09-30T04:25:36.357Z,0.00
2022-09-30T04:26:36.341Z,0.00
2022-09-30T04:27:36.397Z,0.00
2022-09-30T04:28:36.313Z,0.00
2022-09-30T04:29:36.296Z,0.00
2022-09-30T04:30:36.312Z,0.00
2022-09-30T04:31:36.402Z,0.00
2022-09-30T04:32:36.302Z,0.00
2022-09-30T04:33:36.271Z,0.00
2022-09-30T04:34:36.256Z,0.00
2022-09-30T04:35:36.242Z,0.00
2022-09-30T04:36:36.256Z,0.00
2022-09-30T04:37:36.257Z,0.00
2022-09-30T04:38:36.215Z,0.00
2022-09-30T04:39:36.237Z,0.00
2022-09-30T04:40:36.190Z,0.00
2022-09-30T04:41:36.178Z,0.00
2022-09-30T04:42:36.195Z,0.00
2022-09-30T04:43:36.153Z,0.00
2022-09-30T04:44:36.165Z,0.00
2022-09-30T04:45:36.165Z,0.00
2022-09-30T04:46:36.124Z,0.00
2022-09-30T04:47:36.123Z,0.00
2022-09-30T04:48:36.170Z,0.00
2022-09-30T04:49:36.106Z,0.00
2022-09-30T04:50:36.072Z,0.00
2022-09-30T04:51:36.091Z,0.00
2022-09-30T04:52:36.066Z,0.00
2022-09-30T04:53:36.048Z,4.00
2022-09-30T04:54:36.029Z,4.00
2022-09-30T04:55:36.033Z,0.00
2022-09-30T04:56:36.013Z,4.00
2022-09-30T04:57:36.044Z,0.00
2022-09-30T04:58:37.126Z,4.00
2022-09-30T04:59:35.978Z,4.00
2022-09-30T05:00:36.048Z,8.00
2022-09-30T05:01:36.000Z,8.00
2022-09-30T05:02:35.961Z,8.00
2022-09-30T05:03:35.945Z,8.00
2022-09-30T05:04:35.925Z,12.00
2022-09-30T05:05:35.917Z,12.00
2022-09-30T05:06:35.901Z,20.00
2022-09-30T05:07:35.943Z,20.00
2022-09-30T05:08:35.903Z,24.00
2022-09-30T05:09:35.900Z,28.00
2022-09-30T05:10:35.855Z,32.00
2022-09-30T05:11:35.853Z,36.00
2022-09-30T05:12:35.859Z,44.00
2022-09-30T05:13:35.820Z,48.00
2022-09-30T05:14:35.824Z,52.00
2022-09-30T05:15:35.808Z,60.00
2022-09-30T05:16:35.816Z,72.00
2022-09-30T05:17:35.770Z,76.00
2022-09-30T05:18:35.843Z,88.00
2022-09-30T05:19:35.753Z,100.00
2022-09-30T05:20:35.736Z,104.00
2022-09-30T05:21:35.741Z,116.00
2022-09-30T05:22:35.792Z,124.00
2022-09-30T05:23:35.731Z,140.00
2022-09-30T05:24:42.283Z,152.00
2022-09-30T05:25:35.691Z,164.00
2022-09-30T05:26:35.687Z,176.00
2022-09-30T05:27:35.672Z,188.00
2022-09-30T05:28:35.676Z,204.00
2022-09-30T05:29:35.659Z,216.00
2022-09-30T05:30:35.643Z,232.00
2022-09-30T05:31:35.712Z,244.00
2022-09-30T05:32:35.629Z,260.00
2022-09-30T05:33:35.623Z,276.00
2022-09-30T05:34:35.606Z,292.00
2022-09-30T05:35:35.580Z,304.00
2022-09-30T05:36:35.574Z,316.00
2022-09-30T05:37:35.558Z,332.00
2022-09-30T05:38:35.568Z,348.00
2022-09-30T05:39:35.550Z,364.00
2022-09-30T05:40:35.534Z,380.00
2022-09-30T05:41:35.528Z,396.00
2022-09-30T05:42:35.515Z,412.00
2022-09-30T05:43:35.513Z,424.00
2022-09-30T05:44:35.493Z,440.00
2022-09-30T05:45:35.475Z,456.00
2022-09-30T05:46:35.508Z,468.00
2022-09-30T05:47:35.470Z,484.00
2022-09-30T05:48:35.453Z,500.00
2022-09-30T05:49:35.428Z,520.00
2022-09-30T05:50:35.415Z,536.00
2022-09-30T05:51:35.400Z,544.00
2022-09-30T05:52:35.385Z,556.00
2022-09-30T05:53:35.401Z,572.00
2022-09-30T05:54:35.371Z,584.00
2022-09-30T05:55:39.086Z,600.00
2022-09-30T05:56:35.353Z,612.00
2022-09-30T05:57:35.401Z,628.00
2022-09-30T05:58:35.346Z,644.00
2022-09-30T05:59:35.321Z,660.00
2022-09-30T06:00:35.318Z,680.00
2022-09-30T06:01:35.321Z,696.00
2022-09-30T06:02:35.447Z,708.00
2022-09-30T06:03:35.294Z,716.00
2022-09-30T06:04:35.259Z,728.00
2022-09-30T06:05:35.259Z,744.00
2022-09-30T06:06:35.239Z,752.00
2022-09-30T06:07:35.231Z,764.00
2022-09-30T06:08:35.242Z,772.00
2022-09-30T06:09:35.268Z,784.00
2022-09-30T06:10:35.209Z,792.00
2022-09-30T06:11:35.183Z,800.00
2022-09-30T06:12:35.195Z,812.00
2022-09-30T06:13:35.177Z,824.00
2022-09-30T06:14:35.163Z,836.00
2022-09-30T06:15:35.141Z,840.00
2022-09-30T06:16:35.181Z,852.00
2022-09-30T06:17:35.140Z,864.00
2022-09-30T06:18:35.136Z,876.00
2022-09-30T06:19:35.099Z,884.00
2022-09-30T06:20:35.097Z,900.00
2022-09-30T06:21:35.076Z,908.00
2022-09-30T06:22:35.064Z,916.00
2022-09-30T06:23:35.159Z,920.00
2022-09-30T06:24:35.053Z,924.00
2022-09-30T06:25:35.051Z,928.00
2022-09-30T06:26:35.039Z,932.00
2022-09-30T06:27:35.010Z,940.00
2022-09-30T06:28:35.021Z,944.00
2022-09-30T06:29:35.025Z,948.00
2022-09-30T06:30:35.505Z,956.00
2022-09-30T06:31:34.987Z,960.00
2022-09-30T06:32:34.959Z,968.00
2022-09-30T06:33:34.984Z,976.00
2022-09-30T06:34:34.953Z,980.00
2022-09-30T06:35:34.923Z,988.00
2022-09-30T06:36:34.918Z,988.00
2022-09-30T06:37:34.910Z,996.00
2022-09-30T06:38:34.913Z,1004.00
2022-09-30T06:39:34.882Z,1008.00
2022-09-30T06:40:34.874Z,1016.00
2022-09-30T06:41:34.852Z,1020.00
2022-09-30T06:42:34.856Z,1028.00
2022-09-30T06:43:41.656Z,1032.00
2022-09-30T06:44:42.596Z,1036.00
2022-09-30T06:45:34.844Z,1036.00
2022-09-30T06:46:36.570Z,1044.00
2022-09-30T06:47:34.811Z,1048.00
2022-09-30T06:48:38.595Z,1052.00
2022-09-30T06:49:46.153Z,1052.00
2022-09-30T06:50:34.767Z,1056.00
2022-09-30T06:51:34.752Z,1060.00
2022-09-30T06:52:34.735Z,1060.00
2022-09-30T06:53:34.749Z,1064.00
2022-09-30T06:54:34.712Z,1068.00
2022-09-30T06:55:34.713Z,1072.00
2022-09-30T06:56:34.702Z,1076.00
2022-09-30T06:57:34.683Z,1080.00
2022-09-30T06:58:34.696Z,1084.00
2022-09-30T06:59:34.678Z,1092.00
2022-09-30T07:00:34.726Z,1096.00
2022-09-30T07:01:34.646Z,1104.00
2022-09-30T07:02:34.703Z,1104.00
2022-09-30T07:03:34.662Z,1108.00
2022-09-30T07:04:34.616Z,1108.00
2022-09-30T07:05:34.594Z,1108.00
2022-09-30T07:06:34.590Z,1112.00
2022-09-30T07:07:34.585Z,1116.00
2022-09-30T07:08:34.584Z,1112.00
2022-09-30T07:09:34.590Z,1112.00
2022-09-30T07:10:34.550Z,1112.00
2022-09-30T07:11:34.543Z,1120.00
2022-09-30T07:12:34.522Z,1120.00
2022-09-30T07:13:34.523Z,1124.00
2022-09-30T07:14:34.498Z,1124.00
2022-09-30T07:15:34.492Z,1128.00
2022-09-30T07:16:34.561Z,1132.00
2022-09-30T07:17:34.544Z,1132.00
2022-09-30T07:18:34.488Z,1132.00
2022-09-30T07:19:34.450Z,1140.00
2022-09-30T07:20:34.427Z,1148.00
2022-09-30T07:21:34.424Z,1152.00
2022-09-30T07:22:34.427Z,1156.00
2022-09-30T07:23:34.420Z,1160.00
2022-09-30T07:24:34.400Z,1164.00
2022-09-30T07:25:34.382Z,1168.00
2022-09-30T07:26:34.362Z,1172.00
2022-09-30T07:27:35.002Z,1172.00
2022-09-30T07:28:34.377Z,1176.00
2022-09-30T07:29:50.425Z,1172.00
2022-09-30T07:30:34.330Z,1180.00
2022-09-30T07:31:35.529Z,1184.00
2022-09-30T07:32:34.429Z,1196.00
2022-09-30T07:33:34.335Z,1200.00
2022-09-30T07:34:34.276Z,1200.00
2022-09-30T07:35:34.271Z,1200.00
2022-09-30T07:36:34.336Z,1208.00
2022-09-30T07:37:34.265Z,1212.00
2022-09-30T07:38:34.264Z,1216.00
2022-09-30T07:39:34.219Z,1228.00
2022-09-30T07:40:34.355Z,1228.00
2022-09-30T07:41:34.203Z,1248.00
2022-09-30T07:42:34.189Z,1252.00
2022-09-30T07:43:34.190Z,1264.00
2022-09-30T07:44:34.165Z,1276.00
2022-09-30T07:45:34.226Z,1268.00
2022-09-30T07:46:34.176Z,1284.00
2022-09-30T07:47:34.152Z,1276.00
2022-09-30T07:48:34.128Z,1280.00
2022-09-30T07:49:34.135Z,1288.00
2022-09-30T07:50:34.106Z,1304.00
2022-09-30T07:51:34.098Z,1312.00
2022-09-30T07:52:34.086Z,1312.00
2022-09-30T07:53:34.074Z,1320.00
2022-09-30T07:54:38.738Z,1328.00
2022-09-30T07:55:34.061Z,1352.00
2022-09-30T07:56:51.555Z,1368.00
2022-09-30T07:57:34.042Z,1404.00
2022-09-30T07:58:34.021Z,1424.00
2022-09-30T07:59:34.019Z,1452.00
2022-09-30T08:00:42.914Z,1476.00
2022-09-30T08:01:34.093Z,1504.00
2022-09-30T08:02:34.046Z,1560.00
2022-09-30T08:03:33.990Z,1612.00
2022-09-30T08:04:33.985Z,1656.00
2022-09-30T08:05:33.947Z,1696.00
2022-09-30T08:06:33.935Z,1744.00
2022-09-30T08:07:33.914Z,1792.00
2022-09-30T08:08:33.918Z,1860.00
2022-09-30T08:09:33.920Z,1920.00
2022-09-30T08:10:33.885Z,2012.00
2022-09-30T08:11:33.875Z,2092.00
2022-09-30T08:12:33.868Z,2176.00
2022-09-30T08:13:33.844Z,2248.00
2022-09-30T08:14:33.856Z,2292.00
2022-09-30T08:15:33.830Z,2380.00
2022-09-30T08:16:33.856Z,2444.00
2022-09-30T08:17:33.815Z,2492.00
2022-09-30T08:18:33.800Z,2540.00
2022-09-30T08:19:33.942Z,2556.00
2022-09-30T08:20:33.775Z,2592.00
2022-09-30T08:21:33.766Z,2616.00
2022-09-30T08:22:33.763Z,2624.00
2022-09-30T08:23:33.747Z,2652.00
2022-09-30T08:24:33.742Z,2684.00
2022-09-30T08:25:33.719Z,2692.00
2022-09-30T08:26:33.708Z,2668.00
2022-09-30T08:27:33.805Z,2640.00
2022-09-30T08:28:33.697Z,2636.00
2022-09-30T08:29:53.971Z,2644.00
2022-09-30T08:30:33.676Z,2628.00
2022-09-30T08:31:33.718Z,2588.00
2022-09-30T08:32:33.653Z,2516.00
2022-09-30T08:33:33.644Z,2408.00
2022-09-30T08:34:33.642Z,2348.00
2022-09-30T08:35:33.620Z,2280.00
2022-09-30T08:36:33.605Z,2208.00
2022-09-30T08:37:33.586Z,2132.00
2022-09-30T08:38:33.587Z,2068.00
2022-09-30T08:39:33.599Z,2012.00
2022-09-30T08:40:33.560Z,1960.00
2022-09-30T08:41:33.569Z,1904.00
2022-09-30T08:42:38.676Z,1876.00
2022-09-30T08:43:33.533Z,1844.00
2022-09-30T08:44:33.559Z,1796.00
2022-09-30T08:45:33.622Z,1780.00
2022-09-30T08:46:33.492Z,1760.00
2022-09-30T08:47:33.497Z,1752.00
2022-09-30T08:48:33.477Z,1732.00
2022-09-30T08:49:33.500Z,1724.00
2022-09-30T08:50:33.464Z,1744.00
2022-09-30T08:51:33.447Z,1784.00
2022-09-30T08:52:48.012Z,1812.00
2022-09-30T08:53:33.434Z,1816.00
2022-09-30T08:54:36.633Z,1812.00
2022-09-30T08:55:33.406Z,1828.00
2022-09-30T08:56:33.395Z,1820.00
2022-09-30T08:57:33.382Z,1624.00
2022-09-30T08:58:33.362Z,1508.00
2022-09-30T08:59:33.359Z,1748.00
2022-09-30T09:00:33.336Z,1860.00
2022-09-30T09:01:33.404Z,1916.00
2022-09-30T09:02:33.365Z,1992.00
2022-09-30T09:03:33.317Z,2024.00
2022-09-30T09:04:33.364Z,2044.00
2022-09-30T09:05:33.328Z,2068.00
2022-09-30T09:06:33.404Z,2100.00
2022-09-30T09:07:33.259Z,2160.00
2022-09-30T09:08:33.257Z,2172.00
2022-09-30T09:09:33.258Z,2492.00
2022-09-30T09:10:33.225Z,2568.00
2022-09-30T09:11:33.233Z,2668.00
2022-09-30T09:12:33.204Z,2620.00
2022-09-30T09:13:33.202Z,2540.00
2022-09-30T09:14:33.201Z,2520.00
2022-09-30T09:15:33.178Z,2544.00
2022-09-30T09:16:33.196Z,2652.00
2022-09-30T09:17:33.147Z,2808.00
2022-09-30T09:18:33.157Z,3064.00
2022-09-30T09:19:33.143Z,3268.00
2022-09-30T09:20:33.118Z,3396.00
2022-09-30T09:21:33.101Z,3472.00
2022-09-30T09:22:33.101Z,3488.00
2022-09-30T09:23:33.085Z,3472.00
2022-09-30T09:24:33.183Z,3088.00
2022-09-30T09:25:33.072Z,3156.00
2022-09-30T09:26:33.055Z,3308.00
2022-09-30T09:27:33.037Z,3844.00
2022-09-30T09:28:33.178Z,4080.00
2022-09-30T09:29:33.037Z,4156.00
2022-09-30T09:30:33.013Z,4236.00
2022-09-30T09:31:33.078Z,4300.00
2022-09-30T09:32:32.995Z,4144.00
2022-09-30T09:33:32.969Z,4192.00
2022-09-30T09:34:36.871Z,4016.00
2022-09-30T09:35:32.964Z,4456.00
2022-09-30T09:36:32.949Z,4428.00
2022-09-30T09:37:32.948Z,4408.00
2022-09-30T09:38:32.920Z,4560.00
2022-09-30T09:39:32.953Z,4688.00
2022-09-30T09:40:32.901Z,4768.00
2022-09-30T09:41:32.891Z,4932.00
2022-09-30T09:42:32.908Z,5116.00
2022-09-30T09:43:32.866Z,5264.00
2022-09-30T09:44:32.876Z,5308.00
2022-09-30T09:45:32.867Z,5308.00
2022-09-30T09:46:32.828Z,5268.00
2022-09-30T09:47:32.831Z,5292.00
2022-09-30T09:48:32.819Z,5284.00
2022-09-30T09:49:32.839Z,5184.00
2022-09-30T09:50:32.801Z,5084.00
2022-09-30T09:51:32.781Z,5032.00
2022-09-30T09:52:32.772Z,4900.00
2022-09-30T09:53:32.758Z,4856.00
2022-09-30T09:54:32.769Z,4724.00
2022-09-30T09:55:32.739Z,4488.00
2022-09-30T09:56:32.806Z,4260.00
2022-09-30T09:57:32.716Z,4040.00
2022-09-30T09:58:32.709Z,3848.00
2022-09-30T09:59:32.723Z,3184.00
2022-09-30T10:00:32.687Z,3596.00
2022-09-30T10:01:32.871Z,2376.00
2022-09-30T10:02:32.720Z,3072.00
2022-09-30T10:03:32.658Z,3824.00
2022-09-30T10:04:32.648Z,3948.00
2022-09-30T10:05:32.661Z,3836.00
2022-09-30T10:06:32.620Z,2708.00
2022-09-30T10:07:32.605Z,3960.00
2022-09-30T10:08:32.599Z,3964.00
2022-09-30T10:09:32.620Z,2848.00
2022-09-30T10:10:32.598Z,2556.00
2022-09-30T10:11:32.568Z,3576.00
2022-09-30T10:12:32.550Z,3348.00
2022-09-30T10:13:32.545Z,3276.00
2022-09-30T10:14:32.559Z,3288.00
2022-09-30T10:15:32.532Z,3360.00
2022-09-30T10:16:32.513Z,3332.00
2022-09-30T10:17:32.501Z,3416.00
2022-09-30T10:18:32.488Z,3504.00
2022-09-30T10:19:32.502Z,3648.00
2022-09-30T10:20:32.558Z,3944.00
2022-09-30T10:21:32.480Z,4440.00
2022-09-30T10:22:32.444Z,4684.00
2022-09-30T10:23:32.423Z,4456.00
2022-09-30T10:24:32.423Z,4008.00
2022-09-30T10:25:32.432Z,3772.00
2022-09-30T10:26:32.407Z,3336.00
2022-09-30T10:27:32.391Z,3748.00
2022-09-30T10:28:32.487Z,3812.00
2022-09-30T10:29:32.406Z,3620.00
2022-09-30T10:30:32.371Z,3556.00
2022-09-30T10:31:32.410Z,3560.00
2022-09-30T10:32:32.351Z,3592.00
2022-09-30T10:33:32.329Z,3648.00
2022-09-30T10:34:32.316Z,3776.00
2022-09-30T10:35:32.310Z,3932.00
2022-09-30T10:36:32.292Z,3764.00
2022-09-30T10:37:32.280Z,3676.00
2022-09-30T10:38:32.380Z,3860.00
2022-09-30T10:39:32.261Z,3996.00
2022-09-30T10:40:32.276Z,3972.00
2022-09-30T10:41:32.242Z,3924.00
2022-09-30T10:42:32.248Z,3932.00
2022-09-30T10:43:32.211Z,3880.00
2022-09-30T10:44:32.230Z,3896.00
2022-09-30T10:45:32.309Z,3992.00
2022-09-30T10:46:32.280Z,3980.00
2022-09-30T10:47:36.650Z,3764.00
2022-09-30T10:48:32.175Z,3956.00
2022-09-30T10:49:32.181Z,4484.00
2022-09-30T10:50:32.154Z,4984.00
2022-09-30T10:51:31.112Z,5400.00
2022-09-30T10:52:32.129Z,5604.00
2022-09-30T10:53:32.122Z,5364.00
2022-09-30T10:54:32.100Z,4884.00
2022-09-30T10:55:32.129Z,4608.00
2022-09-30T10:56:32.093Z,4796.00
2022-09-30T10:57:32.071Z,4980.00
2022-09-30T10:58:32.072Z,5336.00
2022-09-30T10:59:32.063Z,5440.00
2022-09-30T11:00:32.055Z,4920.00
2022-09-30T11:01:32.094Z,5256.00
2022-09-30T11:02:32.025Z,4788.00
2022-09-30T11:03:32.095Z,3584.00
2022-09-30T11:04:31.993Z,4764.00
2022-09-30T11:05:31.999Z,4712.00
2022-09-30T11:06:31.959Z,4040.00
2022-09-30T11:07:31.961Z,5432.00
2022-09-30T11:08:31.965Z,5576.00
2022-09-30T11:09:31.943Z,5596.00
2022-09-30T11:10:31.957Z,5144.00
2022-09-30T11:11:31.906Z,4544.00
2022-09-30T11:12:31.900Z,4184.00
2022-09-30T11:13:31.900Z,3984.00
2022-09-30T11:14:31.875Z,4056.00
2022-09-30T11:15:31.896Z,4040.00
2022-09-30T11:16:32.292Z,3864.00
2022-09-30T11:17:31.854Z,3672.00
2022-09-30T11:18:31.852Z,3832.00
2022-09-30T11:19:31.844Z,4204.00
2022-09-30T11:20:40.321Z,4312.00
2022-09-30T11:21:31.817Z,4960.00
2022-09-30T11:22:31.806Z,5308.00
2022-09-30T11:23:31.796Z,5036.00
2022-09-30T11:24:31.778Z,4580.00
2022-09-30T11:25:39.450Z,4592.00
2022-09-30T11:26:31.736Z,4284.00
2022-09-30T11:27:31.728Z,3824.00
2022-09-30T11:28:31.720Z,3684.00
2022-09-30T11:29:31.713Z,3996.00
2022-09-30T11:30:31.724Z,5640.00
2022-09-30T11:31:46.475Z,5288.00
2022-09-30T11:32:31.688Z,5760.00
2022-09-30T11:33:39.328Z,6944.00
2022-09-30T11:34:31.669Z,5380.00
2022-09-30T11:35:31.664Z,4664.00
2022-09-30T11:36:31.660Z,5252.00
2022-09-30T11:37:31.626Z,3972.00
2022-09-30T11:38:31.621Z,4540.00
2022-09-30T11:39:31.622Z,4376.00
2022-09-30T11:40:31.609Z,4320.00
2022-09-30T11:41:31.585Z,3308.00
2022-09-30T11:42:31.592Z,3604.00
2022-09-30T11:43:31.559Z,3976.00
2022-09-30T11:44:31.551Z,3644.00
2022-09-30T11:45:31.632Z,4120.00
2022-09-30T11:46:31.541Z,5016.00
2022-09-30T11:47:31.526Z,4616.00
2022-09-30T11:48:33.033Z,3944.00
2022-09-30T11:49:31.490Z,3212.00
2022-09-30T11:50:31.500Z,3148.00
2022-09-30T11:51:31.493Z,3712.00
2022-09-30T11:52:31.469Z,2720.00
2022-09-30T11:53:31.449Z,2824.00
2022-09-30T11:54:31.438Z,3212.00
2022-09-30T11:55:31.452Z,3724.00
2022-09-30T11:56:31.414Z,4524.00
2022-09-30T11:57:31.404Z,5728.00
2022-09-30T11:58:46.826Z,5836.00
2022-09-30T11:59:31.383Z,5172.00
2022-09-30T12:00:31.389Z,4976.00
2022-09-30T12:01:31.368Z,5432.00
2022-09-30T12:02:31.354Z,4924.00
2022-09-30T12:03:31.436Z,4448.00
2022-09-30T12:04:31.334Z,3628.00
2022-09-30T12:05:31.330Z,3748.00
2022-09-30T12:06:31.697Z,3968.00
2022-09-30T12:07:31.291Z,4160.00
2022-09-30T12:08:31.282Z,4036.00
2022-09-30T12:09:31.265Z,4024.00
2022-09-30T12:10:31.297Z,3436.00
2022-09-30T12:11:33.953Z,2984.00
2022-09-30T12:12:31.242Z,3044.00
2022-09-30T12:13:31.234Z,3372.00
2022-09-30T12:14:31.221Z,3564.00
2022-09-30T12:15:31.229Z,4232.00
2022-09-30T12:16:31.664Z,4292.00
2022-09-30T12:17:31.176Z,3916.00
2022-09-30T12:18:31.183Z,3484.00
2022-09-30T12:19:31.162Z,3152.00
2022-09-30T12:20:31.170Z,3268.00
2022-09-30T12:21:31.161Z,3744.00
2022-09-30T12:22:37.974Z,3776.00
2022-09-30T12:23:31.116Z,3944.00
2022-09-30T12:24:31.107Z,4184.00
2022-09-30T12:25:31.119Z,4308.00
2022-09-30T12:26:31.500Z,4392.00
2022-09-30T12:27:31.072Z,4388.00
2022-09-30T12:28:31.191Z,4384.00
2022-09-30T12:29:31.056Z,4388.00
2022-09-30T12:30:31.062Z,4268.00
2022-09-30T12:31:31.085Z,4796.00
2022-09-30T12:32:31.055Z,5324.00
2022-09-30T12:33:31.011Z,6044.00
2022-09-30T12:34:31.002Z,6188.00
2022-09-30T12:35:31.001Z,6252.00
2022-09-30T12:36:31.436Z,6108.00